createdAt,value
2019-05-19T00:02:28.591Z,4.20
2019-05-19T00:05:17.513Z,4.22
2019-05-19T00:08:06.146Z,4.12
2019-05-19T00:10:54.704Z,4.10
2019-05-19T00:13:43.919Z,3.92
2019-05-19T00:16:32.429Z,4.10
2019-05-19T00:19:26.733Z,3.90
2019-05-19T00:22:10.760Z,4.20
2019-05-19T00:24:59.493Z,3.60
2019-05-19T00:27:48.206Z,4.40
2019-05-19T00:30:37.097Z,3.80
2019-05-19T00:33:25.368Z,4.10
2019-05-19T00:36:13.786Z,4.20
2019-05-19T00:39:02.248Z,3.50
2019-05-19T00:41:52.159Z,3.85
2019-05-19T00:44:40.814Z,4.25
2019-05-19T00:47:29.144Z,3.70
2019-05-19T00:50:17.592Z,3.92
2019-05-19T00:53:06.304Z,3.72
2019-05-19T00:55:55.256Z,3.87
2019-05-19T00:58:44.325Z,3.90
2019-05-19T01:01:32.998Z,3.55
2019-05-19T01:04:21.506Z,3.98
2019-05-19T01:07:10.210Z,4.15
2019-05-19T01:09:58.933Z,3.90
2019-05-19T01:12:47.697Z,4.28
2019-05-19T01:15:36.321Z,4.05
2019-05-19T01:18:24.878Z,4.22
2019-05-19T01:21:14.301Z,4.53
2019-05-19T01:24:02.966Z,4.25
2019-05-19T01:26:51.906Z,4.33
2019-05-19T01:29:40.570Z,4.62
2019-05-19T01:32:29.572Z,4.80
2019-05-19T01:35:18.401Z,4.58
2019-05-19T01:38:07.010Z,4.92
2019-05-19T01:40:55.583Z,4.87
2019-05-19T01:43:44.219Z,4.28
2019-05-19T01:46:33.030Z,4.92
2019-05-19T01:49:21.776Z,4.55
2019-05-19T01:52:10.387Z,4.30
2019-05-19T01:54:59.053Z,4.70
2019-05-19T01:57:48.636Z,4.62
2019-05-19T02:00:37.722Z,4.90
2019-05-19T02:03:26.583Z,4.50
2019-05-19T02:06:15.654Z,4.92
2019-05-19T02:09:06.285Z,4.58
2019-05-19T02:11:55.531Z,4.83
2019-05-19T02:14:44.372Z,4.60
2019-05-19T02:17:33.215Z,4.50
2019-05-19T02:20:32.605Z,4.90
2019-05-19T02:23:12.119Z,4.45
2019-05-19T02:26:00.793Z,4.70
2019-05-19T02:28:49.360Z,4.65
2019-05-19T02:31:37.827Z,4.90
2019-05-19T02:34:26.743Z,4.80
2019-05-19T02:37:15.581Z,4.78
2019-05-19T02:40:05.909Z,4.72
2019-05-19T02:42:56.946Z,4.40
2019-05-19T02:45:48.121Z,4.40
2019-05-19T02:48:38.640Z,4.22
2019-05-19T02:51:28.985Z,4.37
2019-05-19T02:54:18.921Z,4.35
2019-05-19T02:57:08.037Z,4.30
2019-05-19T02:59:57.609Z,4.08
2019-05-19T03:02:46.440Z,4.62
2019-05-19T03:05:36.022Z,4.95
2019-05-19T03:08:24.773Z,4.45
2019-05-19T03:11:13.695Z,4.42
2019-05-19T03:14:02.338Z,5.10
2019-05-19T03:16:51.379Z,4.72
2019-05-19T03:19:41.134Z,4.50
2019-05-19T03:22:30.039Z,4.75
2019-05-19T03:25:18.958Z,4.30
2019-05-19T03:28:07.262Z,4.80
2019-05-19T03:31:14.012Z,4.35
2019-05-19T03:34:04.086Z,4.33
2019-05-19T03:36:52.973Z,4.47
2019-05-19T03:39:42.759Z,4.60
2019-05-19T03:42:31.581Z,4.65
2019-05-19T03:45:20.414Z,4.40
2019-05-19T03:48:09.256Z,4.53
2019-05-19T03:50:57.664Z,4.47
2019-05-19T03:53:47.175Z,4.47
2019-05-19T03:56:35.772Z,4.28
2019-05-19T03:59:24.199Z,4.55
2019-05-19T04:02:12.856Z,4.90
2019-05-19T04:05:01.489Z,4.60
2019-05-19T04:07:50.047Z,4.53
2019-05-19T04:10:38.475Z,4.58
2019-05-19T04:13:27.089Z,4.47
2019-05-19T04:16:15.479Z,4.55
2019-05-19T04:19:04.212Z,4.28
2019-05-19T04:21:52.791Z,4.50
2019-05-19T04:24:45.629Z,4.60
2019-05-19T04:27:34.478Z,4.65
2019-05-19T04:30:23.135Z,4.60
2019-05-19T04:33:11.789Z,4.90
2019-05-19T04:36:00.449Z,4.25
2019-05-19T04:38:49.936Z,4.53
2019-05-19T04:41:40.319Z,5.08
2019-05-19T04:44:28.742Z,4.70
2019-05-19T04:47:17.347Z,4.95
2019-05-19T04:50:07.686Z,4.53
2019-05-19T04:52:56.388Z,4.58
2019-05-19T04:55:45.161Z,4.60
2019-05-19T04:58:33.885Z,4.87
2019-05-19T05:01:22.264Z,4.53
2019-05-19T05:04:10.624Z,4.87
2019-05-19T05:06:59.220Z,4.60
2019-05-19T05:09:48.061Z,4.50
2019-05-19T05:12:36.658Z,4.65
2019-05-19T05:15:24.888Z,4.45
2019-05-19T05:18:13.572Z,4.28
2019-05-19T05:21:02.779Z,4.30
2019-05-19T05:23:51.521Z,4.30
2019-05-19T05:26:39.763Z,4.47
2019-05-19T05:29:28.713Z,4.92
2019-05-19T05:32:17.289Z,4.53
2019-05-19T05:35:07.125Z,4.70
2019-05-19T05:37:55.721Z,4.92
2019-05-19T05:40:46.099Z,4.90
2019-05-19T05:43:34.774Z,4.67
2019-05-19T05:46:23.488Z,4.50
2019-05-19T05:49:12.172Z,4.50
2019-05-19T05:52:00.532Z,4.42
2019-05-19T05:54:48.931Z,4.58
2019-05-19T05:57:37.597Z,4.60
2019-05-19T06:00:26.034Z,5.10
2019-05-19T06:03:14.806Z,5.08
2019-05-19T06:06:03.864Z,4.40
2019-05-19T06:08:52.707Z,4.70
2019-05-19T06:11:41.548Z,4.78
2019-05-19T06:14:30.125Z,4.40
2019-05-19T06:17:20.699Z,5.00
2019-05-19T06:20:10.044Z,4.87
2019-05-19T06:22:59.169Z,4.53
2019-05-19T06:25:48.217Z,4.87
2019-05-19T06:28:36.795Z,4.25
2019-05-19T06:31:25.394Z,4.25
2019-05-19T06:34:13.986Z,4.87
2019-05-19T06:37:03.068Z,4.83
2019-05-19T06:39:51.906Z,4.40
2019-05-19T06:42:40.388Z,4.58
2019-05-19T06:45:30.293Z,4.08
2019-05-19T06:48:18.846Z,4.20
2019-05-19T06:51:07.588Z,4.25
2019-05-19T06:53:56.527Z,4.28
2019-05-19T06:56:46.110Z,4.72
2019-05-19T06:59:34.990Z,4.62
2019-05-19T07:02:23.694Z,4.50
2019-05-19T07:05:12.950Z,4.15
2019-05-19T07:08:01.526Z,4.08
2019-05-19T07:10:50.357Z,4.17
2019-05-19T07:13:39.209Z,4.33
2019-05-19T07:16:27.805Z,4.95
2019-05-19T07:19:16.400Z,4.40
2019-05-19T07:22:04.987Z,4.08
2019-05-19T07:24:53.848Z,4.17
2019-05-19T07:27:42.327Z,3.80
2019-05-19T07:30:31.019Z,3.52
2019-05-19T07:33:19.854Z,3.70
2019-05-19T07:36:08.772Z,4.30
2019-05-19T07:38:57.318Z,4.25
2019-05-19T07:41:45.885Z,4.03
2019-05-19T07:44:34.726Z,4.10
2019-05-19T07:47:23.322Z,4.15
2019-05-19T07:50:12.912Z,3.70
2019-05-19T07:53:01.734Z,4.00
2019-05-19T07:55:50.084Z,3.70
2019-05-19T07:58:38.424Z,3.60
2019-05-19T08:01:27.758Z,3.87
2019-05-19T08:04:16.601Z,4.00
2019-05-19T08:07:05.501Z,4.53
2019-05-19T08:09:55.021Z,3.72
2019-05-19T08:12:43.608Z,4.05
2019-05-19T08:15:33.819Z,4.05
2019-05-19T08:18:22.583Z,3.30
2019-05-19T08:21:11.846Z,3.58
2019-05-19T08:24:01.277Z,3.05
2019-05-19T08:26:51.400Z,3.50
2019-05-19T08:29:40.331Z,3.47
2019-05-19T08:32:30.680Z,3.70
2019-05-19T08:35:19.482Z,3.55
2019-05-19T08:38:08.904Z,3.80
2019-05-19T08:41:00.366Z,3.50
2019-05-19T08:43:53.449Z,3.33
2019-05-19T08:46:42.464Z,3.15
2019-05-19T08:49:31.406Z,3.52
2019-05-19T08:52:20.091Z,3.90
2019-05-19T08:55:10.206Z,3.37
2019-05-19T08:57:58.881Z,3.20
2019-05-19T09:00:47.644Z,3.50
2019-05-19T09:03:36.635Z,3.37
2019-05-19T09:06:25.318Z,3.50
2019-05-19T09:09:13.906Z,3.30
2019-05-19T09:12:02.589Z,3.67
2019-05-19T09:14:51.173Z,3.58
2019-05-19T09:17:39.701Z,2.90
2019-05-19T09:20:28.301Z,3.10
2019-05-19T09:23:16.971Z,3.40
2019-05-19T09:26:05.389Z,2.60
2019-05-19T09:28:54.320Z,3.00
2019-05-19T09:31:43.407Z,3.10
2019-05-19T09:34:31.757Z,3.37
2019-05-19T09:37:20.934Z,2.80
2019-05-19T09:40:10.169Z,3.10
2019-05-19T09:42:59.016Z,3.40
2019-05-19T09:45:48.089Z,3.37
2019-05-19T09:48:36.596Z,3.52
2019-05-19T09:51:26.511Z,3.55
2019-05-19T09:54:15.166Z,3.40
2019-05-19T09:57:04.186Z,4.10
2019-05-19T09:59:54.573Z,3.17
2019-05-19T10:02:43.099Z,3.27
2019-05-19T10:05:33.438Z,3.30
2019-05-19T10:08:27.285Z,2.80
2019-05-19T10:11:34.675Z,2.72
2019-05-19T10:14:23.033Z,3.42
2019-05-19T10:17:11.392Z,3.22
2019-05-19T10:20:00.215Z,2.90
2019-05-19T10:22:48.819Z,3.17
2019-05-19T10:25:37.898Z,2.70
2019-05-19T10:28:27.968Z,3.22
2019-05-19T10:31:16.556Z,2.87
2019-05-19T10:34:05.153Z,2.95
2019-05-19T10:36:54.055Z,2.87
2019-05-19T10:39:43.120Z,3.22
2019-05-19T10:42:32.903Z,3.17
2019-05-19T10:45:21.485Z,2.98
2019-05-19T10:48:10.001Z,2.98
2019-05-19T10:50:58.636Z,2.72
2019-05-19T10:53:48.236Z,2.70
2019-05-19T10:56:37.089Z,3.20
2019-05-19T10:59:25.693Z,2.62
2019-05-19T11:02:17.292Z,3.12
2019-05-19T11:05:07.346Z,2.80
2019-05-19T11:07:56.393Z,2.80
2019-05-19T11:10:45.226Z,2.95
2019-05-19T11:13:34.314Z,2.95
2019-05-19T11:16:23.897Z,2.92
2019-05-19T11:19:12.982Z,2.87
2019-05-19T11:22:03.045Z,2.95
2019-05-19T11:24:56.996Z,2.95
2019-05-19T11:30:33.243Z,2.80
2019-05-19T11:33:22.085Z,3.00
2019-05-19T11:36:10.996Z,2.80
2019-05-19T11:38:59.525Z,3.17
2019-05-19T11:41:48.266Z,2.90
2019-05-19T11:44:38.181Z,3.27
2019-05-19T11:47:26.935Z,3.20
2019-05-19T11:50:17.095Z,3.15
2019-05-19T11:53:05.681Z,3.08
2019-05-19T11:56:06.135Z,3.17
2019-05-19T11:58:44.596Z,3.58
2019-05-19T12:01:33.428Z,3.42
2019-05-19T12:07:50.122Z,3.15
2019-05-19T12:10:37.311Z,3.22
2019-05-19T12:13:26.142Z,3.30
2019-05-19T12:19:32.822Z,3.20
2019-05-19T12:22:21.417Z,3.17
2019-05-19T12:25:09.924Z,3.12
2019-05-19T12:27:58.608Z,3.67
2019-05-19T12:30:46.974Z,3.90
2019-05-19T12:33:49.594Z,3.52
2019-05-19T12:36:26.111Z,3.37
2019-05-19T12:39:14.706Z,3.40
2019-05-19T12:42:03.063Z,3.62
2019-05-19T12:44:51.639Z,3.22
2019-05-19T12:47:40.382Z,3.25
2019-05-19T12:50:28.801Z,3.20
2019-05-19T12:53:17.672Z,3.10
2019-05-19T12:56:06.258Z,3.20
2019-05-19T12:58:55.103Z,3.40
2019-05-19T13:01:43.441Z,3.37
2019-05-19T13:04:31.976Z,3.42
2019-05-19T13:07:20.888Z,3.25
2019-05-19T13:10:09.967Z,2.85
2019-05-19T13:12:58.394Z,3.20
2019-05-19T13:15:51.416Z,3.20
2019-05-19T13:18:39.927Z,3.30
2019-05-19T13:21:28.523Z,2.72
2019-05-19T13:24:17.623Z,3.52
2019-05-19T13:27:06.284Z,3.47
2019-05-19T13:29:54.950Z,3.20
2019-05-19T13:32:43.634Z,3.00
2019-05-19T13:35:32.103Z,3.70
2019-05-19T13:38:21.071Z,3.37
2019-05-19T13:41:09.906Z,3.50
2019-05-19T13:43:59.720Z,3.30
2019-05-19T13:46:48.238Z,3.02
2019-05-19T13:49:36.675Z,3.30
2019-05-19T13:52:25.517Z,3.12
2019-05-19T13:55:14.348Z,3.52
2019-05-19T13:58:03.640Z,3.20
2019-05-19T14:00:52.528Z,3.08
2019-05-19T14:03:44.075Z,3.12
2019-05-19T14:06:32.572Z,3.15
2019-05-19T14:09:21.492Z,3.08
2019-05-19T14:12:10.582Z,3.17
2019-05-19T14:14:59.012Z,3.30
2019-05-19T14:17:47.525Z,3.17
2019-05-19T14:20:36.121Z,2.92
2019-05-19T14:23:25.199Z,3.00
2019-05-19T14:26:13.817Z,2.95
2019-05-19T14:29:02.636Z,2.90
2019-05-19T14:31:51.512Z,2.87
2019-05-19T14:34:41.091Z,3.10
2019-05-19T14:37:29.894Z,3.15
2019-05-19T14:40:19.352Z,3.10
2019-05-19T14:43:08.007Z,3.10
2019-05-19T14:45:56.505Z,3.40
2019-05-19T14:48:45.011Z,3.02
2019-05-19T14:51:33.854Z,4.10
2019-05-19T14:54:22.717Z,3.87
2019-05-19T14:57:12.995Z,3.08
2019-05-19T15:00:01.604Z,3.42
2019-05-19T15:02:50.437Z,2.85
2019-05-19T15:05:39.137Z,2.83
2019-05-19T15:08:28.105Z,3.15
2019-05-19T15:11:16.701Z,2.90
2019-05-19T15:14:05.130Z,2.80
2019-05-19T15:16:53.542Z,3.00
2019-05-19T15:19:42.250Z,2.80
2019-05-19T15:22:31.075Z,2.85
2019-05-19T15:25:19.445Z,2.70
2019-05-19T15:28:08.020Z,2.52
2019-05-19T15:30:56.531Z,2.92
2019-05-19T15:33:45.208Z,2.80
2019-05-19T15:36:33.801Z,2.67
2019-05-19T15:39:22.643Z,2.85
2019-05-19T15:42:11.023Z,2.90
2019-05-19T15:44:59.747Z,2.85
2019-05-19T15:47:48.420Z,3.27
2019-05-19T15:50:36.947Z,3.12
2019-05-19T15:53:25.612Z,2.80
2019-05-19T15:56:14.053Z,2.92
2019-05-19T15:59:02.538Z,2.70
2019-05-19T16:01:51.143Z,2.83
2019-05-19T16:04:39.740Z,3.22
2019-05-19T16:07:28.335Z,2.95
2019-05-19T16:10:16.873Z,2.80
2019-05-19T16:13:05.517Z,2.58
2019-05-19T16:15:54.182Z,2.90
2019-05-19T16:18:43.493Z,3.00
2019-05-19T16:21:34.464Z,2.83
2019-05-19T16:24:23.254Z,3.20
2019-05-19T16:27:13.028Z,3.08
2019-05-19T16:30:03.169Z,3.10
2019-05-19T16:32:52.928Z,2.87
2019-05-19T16:35:41.742Z,2.80
2019-05-19T16:38:30.602Z,2.85
2019-05-19T16:41:19.089Z,3.20
2019-05-19T16:44:07.794Z,2.95
2019-05-19T16:46:56.261Z,3.15
2019-05-19T16:49:49.523Z,3.30
2019-05-19T16:55:31.137Z,2.90
2019-05-19T16:58:21.854Z,2.90
2019-05-19T17:01:12.018Z,3.10
2019-05-19T17:04:00.849Z,3.35
2019-05-19T17:06:49.442Z,3.10
2019-05-19T17:09:37.845Z,3.00
2019-05-19T17:12:26.899Z,2.98
2019-05-19T17:15:15.654Z,2.80
2019-05-19T17:18:04.061Z,2.90
2019-05-19T17:20:52.911Z,3.00
2019-05-19T17:23:41.251Z,3.05
2019-05-19T17:26:29.852Z,3.20
2019-05-19T17:29:18.688Z,2.95
2019-05-19T17:32:07.275Z,3.17
2019-05-19T17:34:55.873Z,3.35
2019-05-19T17:37:44.468Z,3.33
2019-05-19T17:40:33.062Z,3.65
2019-05-19T17:43:21.658Z,3.47
2019-05-19T17:46:14.569Z,3.70
2019-05-19T17:49:04.492Z,3.60
2019-05-19T17:51:53.167Z,3.75
2019-05-19T17:54:42.863Z,3.83
2019-05-19T17:57:36.036Z,3.55
2019-05-19T18:00:38.977Z,3.87
2019-05-19T18:03:28.572Z,3.77
2019-05-19T18:06:17.436Z,3.85
2019-05-19T18:09:06.681Z,3.83
2019-05-19T18:11:55.856Z,3.90
2019-05-19T18:14:44.333Z,3.90
2019-05-19T18:17:33.294Z,3.62
2019-05-19T18:20:24.147Z,3.70
2019-05-19T18:23:12.937Z,3.98
2019-05-19T18:26:01.522Z,3.77
2019-05-19T18:28:51.587Z,4.05
2019-05-19T18:31:40.094Z,4.17
2019-05-19T18:34:29.026Z,3.70
2019-05-19T18:37:17.648Z,3.80
2019-05-19T18:40:09.672Z,4.08
2019-05-19T18:42:58.335Z,4.45
2019-05-19T18:45:47.335Z,4.12
2019-05-19T18:48:35.929Z,4.30
2019-05-19T18:51:24.772Z,4.67
2019-05-19T18:54:13.665Z,4.40
2019-05-19T18:57:03.607Z,4.40
2019-05-19T18:59:52.276Z,4.03
2019-05-19T19:02:41.026Z,4.20
2019-05-19T19:05:29.868Z,4.90
2019-05-19T19:08:18.617Z,4.70
2019-05-19T19:11:08.436Z,5.03
2019-05-19T19:13:56.956Z,5.97
2019-05-19T19:16:45.206Z,5.45
2019-05-19T19:19:33.982Z,5.50
2019-05-19T19:22:22.576Z,6.33
2019-05-19T19:25:11.497Z,5.70
2019-05-19T19:27:59.751Z,5.25
2019-05-19T19:30:48.533Z,5.78
2019-05-19T19:33:36.870Z,6.10
2019-05-19T19:36:25.465Z,6.58
2019-05-19T19:39:15.282Z,6.80
2019-05-19T19:42:04.232Z,6.92
2019-05-19T19:44:52.721Z,6.40
2019-05-19T19:47:41.563Z,6.55
2019-05-19T19:50:30.396Z,7.47
2019-05-19T19:53:19.314Z,6.75
2019-05-19T19:56:07.821Z,7.05
2019-05-19T19:58:56.569Z,7.17
2019-05-19T20:01:45.273Z,6.83
2019-05-19T20:04:33.716Z,7.03
2019-05-19T20:07:21.964Z,6.40
2019-05-19T20:10:11.804Z,6.30
2019-05-19T20:13:00.375Z,6.60
2019-05-19T20:15:48.886Z,6.10
2019-05-19T20:18:37.317Z,6.20
2019-05-19T20:21:26.426Z,5.80
2019-05-19T20:24:15.245Z,5.72
2019-05-19T20:27:03.909Z,5.75
2019-05-19T20:29:52.337Z,5.15
2019-05-19T20:32:41.022Z,5.17
2019-05-19T20:35:29.617Z,5.08
2019-05-19T20:38:18.463Z,5.20
2019-05-19T20:41:07.209Z,5.40
2019-05-19T20:43:55.894Z,5.08
2019-05-19T20:46:45.110Z,5.25
2019-05-19T20:49:33.820Z,5.70
2019-05-19T20:52:22.655Z,5.60
2019-05-19T20:55:11.497Z,5.55
2019-05-19T20:58:00.093Z,5.55
2019-05-19T21:00:51.568Z,5.62
2019-05-19T21:03:38.998Z,5.87
2019-05-19T21:06:27.830Z,5.08
2019-05-19T21:09:16.465Z,5.00
2019-05-19T21:12:05.109Z,5.05
2019-05-19T21:14:53.616Z,4.92
2019-05-19T21:17:42.459Z,5.17
2019-05-19T21:20:31.154Z,5.40
2019-05-19T21:23:19.929Z,5.85
2019-05-19T21:26:08.492Z,4.92
2019-05-19T21:28:56.978Z,5.25
2019-05-19T21:31:45.555Z,5.65
2019-05-19T21:34:34.505Z,5.20
2019-05-19T21:37:23.349Z,5.45
2019-05-19T21:40:12.682Z,5.22
2019-05-19T21:43:01.533Z,5.60
2019-05-19T21:45:50.473Z,5.60
2019-05-19T21:48:38.951Z,5.53
2019-05-19T21:51:27.792Z,5.78
2019-05-19T21:54:16.645Z,5.67
2019-05-19T21:57:04.984Z,5.20
2019-05-19T21:59:53.816Z,5.37
2019-05-19T22:02:42.412Z,5.42
2019-05-19T22:05:31.253Z,5.33
2019-05-19T22:08:19.853Z,5.05
2019-05-19T22:11:08.280Z,5.17
2019-05-19T22:13:57.276Z,5.28
2019-05-19T22:16:46.032Z,5.20
2019-05-19T22:19:34.714Z,5.05
2019-05-19T22:22:23.556Z,5.30
2019-05-19T22:25:12.170Z,5.30
2019-05-19T22:28:00.767Z,5.35
2019-05-19T22:30:49.518Z,5.40
2019-05-19T22:33:37.920Z,4.83
2019-05-19T22:36:26.535Z,5.25
2019-05-19T22:39:14.954Z,5.12
2019-05-19T22:42:03.501Z,4.92
2019-05-19T22:44:51.897Z,5.00
2019-05-19T22:47:40.550Z,4.78
2019-05-19T22:50:28.896Z,4.85
2019-05-19T22:53:17.448Z,5.10
2019-05-19T22:56:06.234Z,5.30
2019-05-19T22:58:54.295Z,5.05
2019-05-19T23:01:51.413Z,4.50
2019-05-19T23:04:32.907Z,4.40
2019-05-19T23:07:21.391Z,4.42
2019-05-19T23:10:10.873Z,4.67
2019-05-19T23:12:59.715Z,4.67
2019-05-19T23:15:48.311Z,4.97
2019-05-19T23:18:36.655Z,4.72
2019-05-19T23:21:25.502Z,4.78
2019-05-19T23:24:14.098Z,4.60
2019-05-19T23:27:02.683Z,4.70
2019-05-19T23:29:51.525Z,4.42
2019-05-19T23:32:40.210Z,4.72
2019-05-19T23:35:28.785Z,5.22
2019-05-19T23:38:17.548Z,4.55
2019-05-19T23:41:06.144Z,4.85
2019-05-19T23:43:54.986Z,5.45
2019-05-19T23:46:43.818Z,4.53
2019-05-19T23:49:32.660Z,5.20
2019-05-19T23:52:21.514Z,5.30
2019-05-19T23:55:10.590Z,5.00
2019-05-19T23:57:59.018Z,5.20
